Flight Track Log - Related Links

Times and Time Zones

All times are in EST time to prevent confusion due to time zone crossing. See the UCA3596 flight status page for this flight to view local times or setup timezone preferences in your user account.

Time Position Orientation Groundspeed Altitude Reporting Facility
EST Latitude Longitude Course Direction KTS MPH feet Rate Location/Type
Sat 02:05:00 PM 39.8204 -77.0784 19° North  Level Estimated
Sat 02:06:00 PM 39.8640 -77.0591 19° North  Level Estimated
Sat 02:07:00 PM 39.9076 -77.0397 19° North  Level Estimated
Sat 02:08:00 PM 39.9513 -77.0203 19° North  Level Estimated
Sat 02:09:00 PM 39.9949 -77.0009 19° North  Level Estimated
Sat 02:10:00 PM 40.0385 -76.9815 19° North  Level Estimated
Sat 02:11:00 PM 40.0821 -76.9620 19° North  Level Estimated
Sat 02:12:00 PM 40.1257 -76.9426 19° North  Level Estimated
Sat 02:13:00 PM 40.1693 -76.9231 19° North  Level Estimated
Sat 02:14:00 PM 40.2128 -76.9035 19° North  Level Estimated
Sat 02:15:00 PM 40.2564 -76.8840 19° North  Level Estimated
Sat 02:16:00 PM 40.3000 -76.8644 19° North  Level Estimated
Sat 02:17:00 PM 40.3436 -76.8448 19° North  Level Estimated
Sat 02:18:00 PM 40.3872 -76.8252 19° North  Level Estimated
Sat 02:19:00 PM 40.4308 -76.8055 19° North  Level Estimated
Sat 02:20:00 PM 40.4743 -76.7858 19° North  Level Estimated
Sat 02:21:00 PM 40.5179 -76.7661 19° North  Level Estimated
Sat 02:22:00 PM 40.5615 -76.7464 19° North  Level Estimated
Sat 02:23:00 PM 40.6050 -76.7266 19° North  Level Estimated
Sat 02:24:00 PM 40.6486 -76.7068 19° North  Level Estimated
Sat 02:25:00 PM 40.6921 -76.6870 19° North  Level Estimated
Sat 02:26:00 PM 40.7357 -76.6672 19° North  Level Estimated
Sat 02:27:00 PM 40.7792 -76.6473 19° North  Level Estimated
Sat 02:28:00 PM 40.8228 -76.6274 19° North  Level Estimated
Sat 02:29:00 PM 40.8663 -76.6075 19° North  Level Estimated
Sat 02:30:00 PM 40.9098 -76.5876 19° North  Level Estimated
Sat 02:31:00 PM 40.9534 -76.5676 19° North  Level Estimated
Sat 02:32:00 PM 40.9969 -76.5476 19° North  Level Estimated
Sat 02:33:00 PM 41.0404 -76.5276 19° North  Level Estimated
Sat 02:34:00 PM 41.0840 -76.5076 19° North  Level Estimated
Sat 02:35:00 PM 41.1275 -76.4875 19° North  Level Estimated
Sat 02:36:00 PM 41.2016 -76.4532 19° North  Level Estimated
Sat 02:37:00 PM 41.2758 -76.4189 19° North  Level Estimated
Sat 02:38:00 PM 41.3499 -76.3844 19° North  Level Estimated
Sat 02:39:00 PM 41.4241 -76.3499 19° North  Level Estimated
Sat 02:40:00 PM 41.4982 -76.3153 19° North  Level Estimated
Sat 02:41:00 PM 41.5723 -76.2807 19° North  Level Estimated
Sat 02:42:00 PM 41.6465 -76.2459 19° North  Level Estimated
Sat 02:43:00 PM 41.7206 -76.2111 19° North  Level Estimated
Sat 02:44:00 PM 41.7946 -76.1762 19° North  Level Estimated
Sat 02:45:00 PM 41.8687 -76.1412 19° North  Level Estimated
Sat 02:46:00 PM 41.9428 -76.1061 19° North  Level Estimated

Login

Don't have an account? Register now (free) for customized features, flight alerts, and more!